Time;durP1;ratioP1;P1;durP2;ratioP2;P2;SDS_P1;SDS_P2;PMS_P1;PMS_P2;Temp;Humidity;BMP_temperature;BMP_pressure;BME280_temperature;BME280_humidity;BME280_pressure;Samples;Min_cycle;Max_cycle;Signal;HPM_P1;HPM_P2
2023/06/15 00:02:12;;;;;;;6.90;4.40;;;;;;;20.19;100.00;98980.94;5073197;28;20201;-80
2023/06/15 00:04:40;;;;;;;8.23;4.60;;;;;;;20.19;100.00;98980.94;5073056;28;20213;-80
2023/06/15 00:07:07;;;;;;;6.50;4.00;;;;;;;20.17;100.00;98973.34;5072640;28;20589;-80
2023/06/15 00:09:35;;;;;;;7.67;4.53;;;;;;;20.17;100.00;98977.72;5072576;28;20270;-80
2023/06/15 00:12:02;;;;;;;6.43;4.37;;;;;;;20.17;100.00;98975.13;5072842;28;20250;-80
2023/06/15 00:14:29;;;;;;;8.77;4.17;;;;;;;20.18;100.00;98968.94;5072998;28;20200;-80
2023/06/15 00:16:57;;;;;;;7.43;4.43;;;;;;;20.19;100.00;98965.38;5072768;28;20267;-81
2023/06/15 00:19:24;;;;;;;7.33;4.77;;;;;;;20.18;100.00;98966.34;5073005;28;20212;-80
2023/06/15 00:21:53;;;;;;;12.50;4.07;;;;;;;20.16;100.00;98960.53;5072573;28;20228;-80
2023/06/15 00:24:20;;;;;;;9.57;5.20;;;;;;;20.13;100.00;98966.91;5073214;28;20244;-80
2023/06/15 00:26:48;;;;;;;7.93;4.37;;;;;;;20.15;100.00;98961.50;5073021;28;20229;-80
2023/06/15 00:29:15;;;;;;;8.33;4.67;;;;;;;20.12;100.00;98962.66;5072467;28;20268;-80
2023/06/15 00:31:42;;;;;;;8.30;4.87;;;;;;;20.09;100.00;98961.22;5072311;28;20219;-80
2023/06/15 00:34:08;;;;;;;7.93;4.00;;;;;;;20.09;100.00;98955.22;5072721;28;20589;-80
2023/06/15 00:36:35;;;;;;;6.37;4.20;;;;;;;20.06;100.00;98960.78;5072073;28;20286;-80
2023/06/15 00:39:02;;;;;;;7.47;4.53;;;;;;;20.07;100.00;98952.00;5072539;28;20666;-80
2023/06/15 00:41:29;;;;;;;8.00;4.60;;;;;;;20.04;100.00;98958.38;5072229;28;20290;-80
2023/06/15 00:43:57;;;;;;;7.60;4.73;;;;;;;20.05;100.00;98949.59;5072291;28;20615;-80
2023/06/15 00:46:24;;;;;;;7.00;4.57;;;;;;;20.04;100.00;98945.41;5071663;28;20225;-80
2023/06/15 00:48:51;;;;;;;7.10;4.80;;;;;;;20.02;100.00;98949.94;5071958;28;20256;-80
2023/06/15 00:51:19;;;;;;;8.83;5.03;;;;;;;20.04;100.00;98947.16;5072197;28;20279;-80
2023/06/15 00:53:45;;;;;;;9.40;5.13;;;;;;;20.04;100.00;98947.16;5071873;28;20744;-80
2023/06/15 00:56:13;;;;;;;6.97;4.40;;;;;;;20.05;100.00;98951.38;5071621;28;20290;-80
2023/06/15 00:58:40;;;;;;;7.43;5.00;;;;;;;20.06;100.00;98945.19;5072157;28;20206;-80
2023/06/15 01:01:08;;;;;;;8.00;4.43;;;;;;;20.03;100.00;98941.16;5071421;28;20222;-81
2023/06/15 01:03:35;;;;;;;7.03;4.73;;;;;;;20.00;100.00;98941.53;5071835;28;20630;-80
2023/06/15 01:06:13;;;;;;;7.57;4.37;;;;;;;20.01;100.00;98945.75;5071576;28;20212;-80
2023/06/15 01:08:42;;;;;;;8.60;4.83;;;;;;;20.01;100.00;98940.56;5071816;28;20673;-80
2023/06/15 01:11:10;;;;;;;8.03;5.03;;;;;;;20.02;100.00;98942.16;5071395;28;20249;-80
2023/06/15 01:13:38;;;;;;;8.73;4.77;;;;;;;20.03;100.00;98940.38;5071390;28;20351;-80
2023/06/15 01:16:11;;;;;;;6.93;4.60;;;;;;;20.04;100.00;98941.97;5070856;28;20234;-80
2023/06/15 01:18:46;;;;;;;8.03;4.93;;;;;;;20.02;100.00;98944.75;5071432;28;20280;-80
2023/06/15 01:21:13;;;;;;;7.70;5.27;;;;;;;19.99;100.00;98945.09;5071058;28;20226;-80
2023/06/15 01:23:44;;;;;;;9.27;5.23;;;;;;;20.00;100.00;98936.31;5071497;28;20206;-80
2023/06/15 01:26:13;;;;;;;10.70;5.80;;;;;;;20.01;100.00;98942.31;5071116;28;20229;-81
2023/06/15 01:28:45;;;;;;;12.60;5.77;;;;;;;20.01;100.00;98937.97;5071433;28;20655;-80
2023/06/15 01:31:13;;;;;;;21.20;8.33;;;;;;;20.01;100.00;98939.72;5070890;28;20299;-80
2023/06/15 01:33:47;;;;;;;15.00;8.30;;;;;;;20.00;100.00;98935.53;5070888;28;20206;-81
2023/06/15 01:36:14;;;;;;;17.80;8.60;;;;;;;19.99;100.00;98942.50;5070538;28;20248;-81
2023/06/15 01:38:42;;;;;;;14.00;6.90;;;;;;;19.99;100.00;98939.91;5071282;28;20200;-80
2023/06/15 01:41:10;;;;;;;9.03;5.23;;;;;;;19.98;100.00;98938.28;5071485;28;20285;-80
2023/06/15 01:43:39;;;;;;;10.27;5.80;;;;;;;19.95;100.00;98938.63;5070801;28;20209;-80
2023/06/15 01:46:07;;;;;;;9.47;5.13;;;;;;;19.95;100.00;98938.63;5071228;28;20224;-80
2023/06/15 01:48:34;;;;;;;9.17;5.07;;;;;;;19.95;100.00;98938.63;5070718;28;20219;-80
2023/06/15 01:51:02;;;;;;;8.67;5.00;;;;;;;19.97;100.00;98941.88;5070775;28;20259;-80
2023/06/15 01:53:30;;;;;;;7.50;4.83;;;;;;;19.96;100.00;98935.06;5070978;28;20204;-80
2023/06/15 01:55:59;;;;;;;8.40;4.80;;;;;;;19.98;100.00;98927.09;5070857;28;20221;-80
2023/06/15 01:58:25;;;;;;;9.53;5.37;;;;;;;19.96;100.00;98935.06;5071002;28;20235;-80
2023/06/15 02:00:54;;;;;;;7.60;4.73;;;;;;;19.97;100.00;98939.28;5070415;28;20226;-80
2023/06/15 02:03:21;;;;;;;7.53;4.53;;;;;;;19.93;100.00;98930.25;5070595;28;20301;-81
2023/06/15 02:05:47;;;;;;;7.80;4.70;;;;;;;19.91;100.00;98932.19;5070647;28;20225;-81
2023/06/15 02:08:14;;;;;;;8.67;5.30;;;;;;;19.87;100.00;98925.75;5071224;28;20299;-80
2023/06/15 02:10:41;;;;;;;9.47;4.43;;;;;;;19.85;100.00;98932.88;5070559;28;20225;-80
2023/06/15 02:13:09;;;;;;;7.87;4.77;;;;;;;19.84;100.00;98933.88;5070309;28;20203;-80
2023/06/15 02:15:36;;;;;;;11.77;5.13;;;;;;;19.77;100.00;98925.16;5070143;28;20222;-80
2023/06/15 02:18:10;;;;;;;10.00;5.77;;;;;;;19.73;100.00;98929.91;5070861;28;20236;-80
2023/06/15 02:20:37;;;;;;;9.43;5.40;;;;;;;19.66;100.00;98932.38;5070549;28;20230;-80
2023/06/15 02:23:04;;;;;;;10.77;5.80;;;;;;;19.58;100.00;98937.59;5070217;28;20198;-80
2023/06/15 02:25:31;;;;;;;9.40;5.03;;;;;;;19.48;100.00;98933.59;5070945;28;20277;-80
2023/06/15 02:27:58;;;;;;;9.87;5.33;;;;;;;19.40;100.00;98939.63;5070991;28;20213;-80
2023/06/15 02:30:26;;;;;;;10.63;5.93;;;;;;;19.33;100.00;98931.75;5070403;28;20229;-80
2023/06/15 02:32:53;;;;;;;9.87;5.30;;;;;;;19.26;100.00;98935.16;5070950;28;20261;-80
2023/06/15 02:35:22;;;;;;;10.50;5.40;;;;;;;19.19;100.00;98932.47;5070659;28;20232;-80
2023/06/15 02:37:49;;;;;;;9.30;4.67;;;;;;;19.12;100.00;98927.16;5070519;28;20241;-80
2023/06/15 02:40:16;;;;;;;8.20;4.77;;;;;;;19.06;100.00;98922.66;5069990;28;20228;-80
2023/06/15 02:42:43;;;;;;;10.00;4.90;;;;;;;19.03;100.00;98928.19;5070761;28;20203;-80
2023/06/15 02:45:10;;;;;;;13.33;4.60;;;;;;;19.02;100.00;98925.75;5070320;28;20223;-80
2023/06/15 02:47:38;;;;;;;7.37;4.30;;;;;;;18.97;100.00;98923.66;5070476;28;20197;-81
2023/06/15 02:50:06;;;;;;;7.20;4.70;;;;;;;18.90;100.00;98927.91;5070322;28;20232;-80
2023/06/15 02:52:36;;;;;;;6.57;4.10;;;;;;;18.85;100.00;98920.66;5070841;28;20652;-80
2023/06/15 02:55:03;;;;;;;6.07;4.43;;;;;;;18.76;100.00;98930.22;5070066;28;20229;-80
2023/06/15 02:57:30;;;;;;;7.83;4.63;;;;;;;18.73;100.00;98930.56;5070357;28;20672;-81
2023/06/15 02:59:58;;;;;;;7.13;4.50;;;;;;;18.72;100.00;98926.31;5070291;28;20201;-81
2023/06/15 03:02:25;;;;;;;6.73;4.40;;;;;;;18.71;100.00;98927.28;5070411;28;20382;-81
2023/06/15 03:04:53;;;;;;;8.13;4.53;;;;;;;18.69;100.00;98926.63;5070111;28;20205;-80
2023/06/15 03:07:22;;;;;;;7.27;4.00;;;;;;;18.70;100.00;98928.28;5070307;28;20199;-80
2023/06/15 03:09:52;;;;;;;8.27;4.80;;;;;;;18.69;100.00;98931.81;5074063;28;20204;-81
2023/06/15 03:12:19;;;;;;;7.73;4.63;;;;;;;18.72;100.00;98939.25;5073553;28;20202;-81
2023/06/15 03:14:50;;;;;;;7.93;4.80;;;;;;;18.74;100.00;98928.78;5073836;28;20209;-81
2023/06/15 03:17:17;;;;;;;10.47;4.83;;;;;;;18.76;100.00;98940.59;5073772;28;20347;-81
2023/06/15 03:19:46;;;;;;;10.57;5.50;;;;;;;18.80;100.00;98938.47;5073595;28;20205;-80
2023/06/15 03:22:13;;;;;;;10.37;5.43;;;;;;;18.82;100.00;98943.47;5074073;28;20278;-81
2023/06/15 03:24:41;;;;;;;9.03;5.20;;;;;;;18.86;100.00;98942.16;5073295;28;20206;-81
2023/06/15 03:27:11;;;;;;;9.67;5.47;;;;;;;18.89;100.00;98936.66;5073641;28;20573;-81
2023/06/15 03:29:38;;;;;;;9.80;5.30;;;;;;;18.92;100.00;98938.91;5073376;28;20271;-81
2023/06/15 03:32:06;;;;;;;8.50;5.23;;;;;;;18.96;100.00;98935.00;5073494;28;20227;-81
2023/06/15 03:34:33;;;;;;;9.70;4.93;;;;;;;19.02;100.00;98931.72;5073640;28;20208;-81
2023/06/15 03:37:00;;;;;;;10.27;5.33;;;;;;;19.09;100.00;98931.88;5073219;28;20793;-81
2023/06/15 03:39:26;;;;;;;10.50;5.10;;;;;;;19.15;100.00;98937.19;5073030;28;20200;-81
2023/06/15 03:41:53;;;;;;;8.57;4.97;;;;;;;19.21;100.00;98936.50;5073886;28;20242;-81
2023/06/15 03:44:22;;;;;;;8.37;5.17;;;;;;;19.32;100.00;98937.09;5073171;28;20469;-81
2023/06/15 03:46:48;;;;;;;9.17;5.30;;;;;;;19.38;100.00;98936.41;5072745;28;20727;-81
2023/06/15 03:49:15;;;;;;;9.70;4.80;;;;;;;19.45;100.00;98937.34;5073498;28;20222;-81
2023/06/15 03:51:42;;;;;;;10.13;5.60;;;;;;;19.51;100.00;98938.44;5073595;28;20231;-81
2023/06/15 03:54:09;;;;;;;8.63;4.90;;;;;;;19.55;100.00;98937.94;5073214;28;20212;-81
2023/06/15 03:56:36;;;;;;;9.97;5.30;;;;;;;19.67;100.00;98931.41;5073149;28;20300;-81
2023/06/15 03:59:03;;;;;;;8.90;5.50;;;;;;;19.77;100.00;98932.94;5072940;28;20206;-81
2023/06/15 04:01:32;;;;;;;8.60;5.17;;;;;;;19.86;100.00;98931.91;5073052;28;20591;-81
2023/06/15 04:03:59;;;;;;;9.33;4.83;;;;;;;19.91;100.00;98932.19;5073496;28;20247;-81
2023/06/15 04:06:26;;;;;;;10.13;5.47;;;;;;;20.01;100.00;98935.38;5072302;28;20232;-81
2023/06/15 04:08:53;;;;;;;9.63;5.37;;;;;;;20.06;100.00;98940.81;5072815;28;20608;-81
2023/06/15 04:11:20;;;;;;;10.87;5.70;;;;;;;20.12;100.00;98944.50;5072611;28;20222;-81
2023/06/15 04:13:47;;;;;;;9.30;4.93;;;;;;;20.17;100.00;98942.19;5073090;28;20203;-81
2023/06/15 04:16:13;;;;;;;8.53;5.40;;;;;;;20.25;100.00;98943.91;5072462;28;20223;-81
2023/06/15 04:18:42;;;;;;;10.13;5.43;;;;;;;20.33;100.00;98939.44;5072515;28;20242;-81
2023/06/15 04:21:08;;;;;;;8.67;5.00;;;;;;;20.40;100.00;98946.53;5071551;28;20227;-81
2023/06/15 04:23:36;;;;;;;11.97;5.30;;;;;;;20.47;100.00;98943.03;5072609;28;20709;-81
2023/06/15 04:26:03;;;;;;;8.80;5.20;;;;;;;20.51;100.00;98933.91;5072613;28;20225;-81
2023/06/15 04:28:31;;;;;;;6.93;4.60;;;;;;;20.58;100.00;98945.22;5072649;28;20212;-80
2023/06/15 04:31:09;;;;;;;8.53;4.73;;;;;;;20.68;100.00;98938.94;5072435;28;20613;-81
2023/06/15 04:33:37;;;;;;;7.80;4.60;;;;;;;20.68;100.00;98944.16;5072725;28;20233;-81
2023/06/15 04:36:06;;;;;;;8.20;4.80;;;;;;;20.77;100.00;98953.47;5072264;28;20225;-81
2023/06/15 04:38:33;;;;;;;10.97;4.87;;;;;;;20.84;100.00;98950.97;5072004;28;20231;-80
2023/06/15 04:41:00;;;;;;;7.13;4.53;;;;;;;20.92;100.00;98949.06;5071928;28;20289;-80
2023/06/15 04:43:27;;;;;;;7.07;4.57;;;;;;;20.94;100.00;98949.72;5071838;28;20683;-80
2023/06/15 04:45:54;;;;;;;8.23;5.00;;;;;;;21.03;100.00;98953.81;5072217;28;20287;-81
2023/06/15 04:48:21;;;;;;;7.80;4.37;;;;;;;21.07;100.00;98963.84;5072120;28;20578;-81
2023/06/15 04:50:49;;;;;;;7.93;4.43;;;;;;;21.13;100.00;98963.94;5071944;28;20226;-79
2023/06/15 04:53:19;;;;;;;10.57;4.90;;;;;;;21.19;100.00;98957.19;5072766;28;20805;-79
2023/06/15 04:55:46;;;;;;;8.27;4.82;;;;;;;21.26;100.00;98960.66;5072476;28;20697;-80
2023/06/15 04:58:13;;;;;;;9.23;5.23;;;;;;;21.32;100.00;98965.16;5072166;28;20675;-80
2023/06/15 05:00:42;;;;;;;6.22;4.32;;;;;;;21.46;100.00;98966.13;5071601;28;20222;-80
2023/06/15 05:03:09;;;;;;;8.88;4.78;;;;;;;21.58;100.00;98972.44;5071425;28;20662;-80
2023/06/15 05:05:35;;;;;;;7.07;4.43;;;;;;;21.69;100.00;98973.75;5071583;28;20395;-80
2023/06/15 05:08:02;;;;;;;5.63;3.95;;;;;;;21.76;100.00;98973.81;5071146;28;20221;-80
2023/06/15 05:10:31;;;;;;;6.97;4.60;;;;;;;21.88;100.00;98967.94;5071472;28;20219;-81
2023/06/15 05:12:58;;;;;;;7.28;4.50;;;;;;;21.97;100.00;98967.81;5071234;28;20281;-80
2023/06/15 05:15:25;;;;;;;6.20;4.40;;;;;;;22.15;100.00;98971.56;5070918;28;20754;-80
2023/06/15 05:17:51;;;;;;;7.25;4.63;;;;;;;22.39;100.00;98969.56;5071381;28;20293;-80
2023/06/15 05:20:18;;;;;;;7.80;4.63;;;;;;;22.54;100.00;98977.28;5071058;28;20218;-80
2023/06/15 05:22:45;;;;;;;9.50;5.03;;;;;;;22.70;100.00;98974.38;5071494;28;20207;-80
2023/06/15 05:25:12;;;;;;;7.68;4.75;;;;;;;22.96;100.00;98978.16;5071246;28;20295;-80
2023/06/15 05:27:41;;;;;;;6.22;4.50;;;;;;;23.14;100.00;98978.44;5071835;28;20198;-80
2023/06/15 05:30:11;;;;;;;6.43;4.63;;;;;;;23.34;100.00;98986.34;5071389;28;20231;-80
2023/06/15 05:32:39;;;;;;;7.53;4.18;;;;;;;23.46;100.00;98981.38;5071166;28;20678;-80
2023/06/15 05:35:08;;;;;;;6.35;4.10;;;;;;;23.44;100.00;98988.56;5071332;28;20222;-80
2023/06/15 05:37:35;;;;;;;7.07;4.70;;;;;;;23.41;100.00;98987.16;5071168;28;20279;-79
2023/06/15 05:40:03;;;;;;;6.95;4.28;;;;;;;23.47;100.00;98988.19;5070511;28;20241;-80
2023/06/15 05:42:30;;;;;;;5.22;3.58;;;;;;;23.55;100.00;98993.22;5071515;28;20690;-80
2023/06/15 05:44:58;;;;;;;5.93;3.80;;;;;;;23.50;100.00;98998.22;5071471;28;20751;-80
2023/06/15 05:47:25;;;;;;;5.53;3.60;;;;;;;23.50;100.00;98998.22;5071253;28;20206;-80
2023/06/15 05:49:52;;;;;;;7.03;4.20;;;;;;;23.53;100.00;98997.81;5071292;28;20641;-80
2023/06/15 05:52:19;;;;;;;6.35;3.90;;;;;;;23.60;100.00;98998.66;5072830;28;20201;-80
2023/06/15 05:54:46;;;;;;;6.50;3.70;;;;;;;23.55;100.00;99001.06;5071452;28;20256;-80
2023/06/15 05:57:13;;;;;;;6.18;3.90;;;;;;;23.44;100.00;98996.41;5071718;28;20206;-79
2023/06/15 05:59:40;;;;;;;4.82;3.47;;;;;;;23.50;100.00;98998.22;5071569;28;20206;-79
2023/06/15 06:02:09;;;;;;;5.10;3.60;;;;;;;23.47;100.00;99003.84;5070559;28;20224;-79
2023/06/15 06:04:36;;;;;;;5.20;3.67;;;;;;;23.53;100.00;99004.84;5072291;28;20637;-80
2023/06/15 06:07:05;;;;;;;4.95;4.00;;;;;;;23.63;100.00;99007.91;5071629;28;20726;-79
2023/06/15 06:09:32;;;;;;;6.30;4.20;;;;;;;23.66;100.00;99000.47;5071676;28;20704;-79
2023/06/15 06:12:00;;;;;;;6.45;3.63;;;;;;;23.71;100.00;99008.56;5070859;28;20305;-79
2023/06/15 06:14:27;;;;;;;4.10;3.15;;;;;;;23.83;100.00;99006.19;5071908;28;20665;-79
2023/06/15 06:16:54;;;;;;;4.07;3.28;;;;;;;23.94;99.39;99007.41;5071824;28;20612;-79
2023/06/15 06:19:22;;;;;;;4.20;3.03;;;;;;;23.97;96.89;99008.78;5071578;28;20325;-80
2023/06/15 06:21:49;;;;;;;5.93;3.47;;;;;;;23.98;94.94;99019.06;5071481;28;20214;-79
2023/06/15 06:24:16;;;;;;;5.93;3.55;;;;;;;24.06;96.77;99008.41;5071431;28;20221;-80
2023/06/15 06:26:43;;;;;;;10.45;3.25;;;;;;;24.00;95.90;99022.28;5071576;28;20272;-81
2023/06/15 06:29:10;;;;;;;8.35;3.78;;;;;;;23.96;94.64;99023.66;5070832;28;20309;-80
2023/06/15 06:31:37;;;;;;;4.22;3.28;;;;;;;23.93;95.82;99011.00;5070346;28;20255;-81
2023/06/15 06:34:03;;;;;;;6.00;3.25;;;;;;;23.80;96.27;99008.38;5070400;28;20687;-80
2023/06/15 06:36:32;;;;;;;5.35;3.70;;;;;;;23.81;97.18;99009.97;5070523;28;20227;-80
2023/06/15 06:38:58;;;;;;;6.38;3.50;;;;;;;23.95;98.96;99007.19;5070563;28;20244;-79
2023/06/15 06:41:25;;;;;;;4.25;3.25;;;;;;;23.88;96.96;99022.06;5070912;28;20238;-80
2023/06/15 06:43:53;;;;;;;5.82;4.00;;;;;;;23.83;97.58;99013.22;5072811;28;20198;-80
2023/06/15 06:46:22;;;;;;;12.18;4.00;;;;;;;24.08;97.19;99014.22;5074030;28;20214;-79
2023/06/15 06:48:49;;;;;;;5.38;3.50;;;;;;;24.34;95.45;99015.25;5074322;28;20687;-80
2023/06/15 06:51:16;;;;;;;4.07;3.20;;;;;;;24.68;95.77;99026.50;5074519;28;20260;-81
2023/06/15 06:53:44;;;;;;;6.78;3.85;;;;;;;25.22;98.60;99022.75;5074201;28;20213;-80
2023/06/15 06:56:11;;;;;;;6.03;3.90;;;;;;;25.36;95.49;99021.69;5074826;28;20222;-79
2023/06/15 06:58:37;;;;;;;6.03;4.00;;;;;;;25.70;96.68;99014.50;5073844;28;20234;-79
2023/06/15 07:01:04;;;;;;;7.50;4.45;;;;;;;26.04;93.99;99015.13;5074207;28;20235;-80
2023/06/15 07:03:31;;;;;;;7.32;4.30;;;;;;;26.26;91.45;99013.72;5075449;28;20203;-79
2023/06/15 07:05:59;;;;;;;4.93;3.67;;;;;;;26.35;88.58;99025.53;5074052;28;20232;-79
2023/06/15 07:08:26;;;;;;;4.93;3.85;;;;;;;26.57;92.34;99019.94;5074324;28;20682;-79
2023/06/15 07:10:54;;;;;;;6.18;4.15;;;;;;;26.71;92.60;99016.16;5074849;28;20664;-79
2023/06/15 07:13:21;;;;;;;7.10;4.18;;;;;;;26.81;87.54;99019.06;5074319;28;20271;-79
2023/06/15 07:15:54;;;;;;;8.13;4.45;;;;;;;26.84;86.90;99021.25;5074393;28;20218;-80
2023/06/15 07:18:21;;;;;;;4.72;3.83;;;;;;;26.89;84.51;99014.56;5075114;28;20287;-80
2023/06/15 07:20:53;;;;;;;5.45;4.07;;;;;;;26.97;88.07;99019.53;5074186;28;20235;-80
2023/06/15 07:23:20;;;;;;;6.88;3.72;;;;;;;27.01;85.84;99020.69;5075771;28;20245;-79
2023/06/15 07:25:47;;;;;;;5.57;3.95;;;;;;;27.01;85.38;99021.47;5075187;28;20309;-78
2023/06/15 07:28:15;;;;;;;5.30;3.97;;;;;;;27.19;85.97;99017.28;5076487;28;20221;-78
2023/06/15 07:30:42;;;;;;;5.78;4.00;;;;;;;27.45;86.68;99018.78;5075271;28;20219;-79
2023/06/15 07:33:08;;;;;;;8.43;4.82;;;;;;;27.70;85.48;99024.69;5075754;28;20203;-78
2023/06/15 07:35:35;;;;;;;11.60;7.78;;;;;;;27.90;82.27;99023.66;5077406;28;20227;-79
2023/06/15 07:38:02;;;;;;;17.15;11.13;;;;;;;28.23;84.24;99017.84;5074396;28;20226;-79
2023/06/15 07:40:29;;;;;;;6.03;4.47;;;;;;;28.51;81.78;99022.47;5076771;28;20621;-79
2023/06/15 07:42:56;;;;;;;7.95;4.30;;;;;;;28.66;77.03;99022.00;5075051;28;20205;-78
2023/06/15 07:45:24;;;;;;;5.07;3.80;;;;;;;28.27;75.36;99028.72;5073777;28;20274;-79
2023/06/15 07:47:51;;;;;;;5.40;3.75;;;;;;;28.47;74.52;99018.69;5073755;28;20198;-80
2023/06/15 07:50:18;;;;;;;9.27;3.90;;;;;;;28.78;78.36;99020.16;5073552;28;20672;-79
2023/06/15 07:52:44;;;;;;;3.92;3.35;;;;;;;29.04;76.97;99024.16;5073396;28;20206;-78
2023/06/15 07:55:11;;;;;;;5.20;3.97;;;;;;;29.08;72.71;99021.84;5072439;28;20229;-77
2023/06/15 07:57:38;;;;;;;4.85;3.47;;;;;;;29.13;70.56;99026.44;5073175;28;20839;-77
2023/06/15 08:00:08;;;;;;;4.60;3.60;;;;;;;29.20;74.26;99025.25;5074257;28;20242;-79
2023/06/15 08:02:36;;;;;;;4.50;3.17;;;;;;;29.05;68.40;99024.94;5073250;28;20214;-80
2023/06/15 08:05:03;;;;;;;3.45;2.85;;;;;;;29.06;76.99;99021.28;5073194;28;20218;-79
2023/06/15 08:07:31;;;;;;;4.38;3.38;;;;;;;29.20;69.40;99032.34;5075375;28;20195;-79
2023/06/15 08:09:59;;;;;;;4.60;3.05;;;;;;;29.15;66.61;99030.44;5073880;28;20199;-78
2023/06/15 08:12:26;;;;;;;5.00;3.33;;;;;;;29.16;68.62;99032.03;5074192;28;20230;-79
2023/06/15 08:14:53;;;;;;;3.95;3.30;;;;;;;29.38;72.68;99029.56;5073058;28;20241;-79
2023/06/15 08:17:20;;;;;;;4.18;3.13;;;;;;;29.41;69.87;99026.44;5073132;28;20260;-78
2023/06/15 08:19:48;;;;;;;3.92;3.33;;;;;;;29.25;66.03;99024.56;5072709;28;20230;-79
2023/06/15 08:22:15;;;;;;;4.15;3.15;;;;;;;29.09;64.91;99024.25;5073867;28;20207;-78
2023/06/15 08:24:41;;;;;;;5.30;3.42;;;;;;;28.84;66.66;99023.69;5073375;28;20199;-77
2023/06/15 08:27:10;;;;;;;4.70;2.95;;;;;;;29.06;70.97;99016.81;5073894;28;20202;-78
2023/06/15 08:29:37;;;;;;;4.25;3.10;;;;;;;29.03;68.75;99022.56;5074242;28;20207;-78
2023/06/15 08:32:08;;;;;;;8.32;3.45;;;;;;;29.22;71.24;99025.03;5076257;28;20219;-78
2023/06/15 08:34:35;;;;;;;4.53;2.97;;;;;;;28.97;65.92;99018.16;5077599;28;20234;-78
2023/06/15 08:37:04;;;;;;;3.92;3.10;;;;;;;29.18;69.54;99019.44;5077425;28;20718;-78
2023/06/15 08:39:31;;;;;;;3.90;3.08;;;;;;;29.25;70.25;99021.91;5075108;28;20235;-78
2023/06/15 08:42:01;;;;;;;4.03;2.92;;;;;;;28.81;65.30;99011.00;5074901;28;20222;-78
2023/06/15 08:44:28;;;;;;;5.10;3.38;;;;;;;28.91;65.36;99013.84;5075967;28;20195;-78
2023/06/15 08:46:57;;;;;;;8.25;3.17;;;;;;;29.05;68.75;99017.03;5077206;28;20707;-78
2023/06/15 08:49:26;;;;;;;3.92;3.00;;;;;;;29.02;65.92;99018.31;5078250;28;20268;-78
2023/06/15 08:51:55;;;;;;;3.33;2.90;;;;;;;29.11;65.48;99014.28;5076926;28;20744;-78
2023/06/15 08:54:25;;;;;;;5.47;2.90;;;;;;;29.32;69.40;99009.41;5077812;28;20236;-78
2023/06/15 08:56:51;;;;;;;5.57;2.83;;;;;;;29.17;64.40;99003.84;5076433;28;20218;-78
2023/06/15 08:59:18;;;;;;;3.28;2.67;;;;;;;28.95;68.59;99004.47;5075554;28;20238;-78
2023/06/15 09:01:46;;;;;;;4.20;3.15;;;;;;;28.86;64.24;99005.84;5074503;28;20227;-79
2023/06/15 09:04:13;;;;;;;4.90;3.33;;;;;;;28.62;63.98;98995.38;5073812;28;20281;-79
2023/06/15 09:06:41;;;;;;;3.97;3.10;;;;;;;28.95;69.65;98993.13;5072928;28;20218;-78
2023/06/15 09:09:09;;;;;;;4.22;3.25;;;;;;;29.26;65.32;98999.81;5074077;28;20203;-79
2023/06/15 09:11:41;;;;;;;3.40;2.92;;;;;;;29.16;61.98;98997.00;5073091;28;20307;-79
2023/06/15 09:14:11;;;;;;;3.78;2.88;;;;;;;28.98;62.63;98997.94;5074036;28;20203;-78
2023/06/15 09:16:38;;;;;;;3.75;2.80;;;;;;;28.98;62.90;98997.94;5072451;28;20654;-79
2023/06/15 09:19:11;;;;;;;3.00;2.50;;;;;;;28.80;58.54;98996.25;5073324;28;20601;-78
2023/06/15 09:21:41;;;;;;;3.63;3.00;;;;;;;28.65;62.42;98981.75;5073739;28;20222;-79
2023/06/15 09:24:09;;;;;;;3.22;2.63;;;;;;;28.66;61.64;98990.44;5072458;28;20744;-79
2023/06/15 09:26:39;;;;;;;2.95;2.65;;;;;;;28.59;64.71;98985.28;5073258;28;20310;-79
2023/06/15 09:29:12;;;;;;;2.97;2.58;;;;;;;28.70;65.47;98985.50;5073136;28;20286;-78
2023/06/15 09:31:40;;;;;;;3.60;2.70;;;;;;;28.44;63.46;98982.34;5071895;28;20305;-79
2023/06/15 09:34:08;;;;;;;4.50;2.50;;;;;;;28.44;64.17;98974.44;5071824;28;20199;-79
2023/06/15 09:36:38;;;;;;;4.10;2.67;;;;;;;28.35;62.79;98973.16;5072651;28;20853;-79
2023/06/15 09:39:06;;;;;;;3.25;2.65;;;;;;;28.32;58.91;98978.88;5071831;28;20264;-79
2023/06/15 09:41:33;;;;;;;2.90;2.50;;;;;;;28.15;59.35;98974.28;5072175;28;20309;-78
2023/06/15 09:44:03;;;;;;;3.55;2.55;;;;;;;28.10;60.31;98966.31;5072128;28;20198;-78
2023/06/15 09:46:31;;;;;;;3.10;2.33;;;;;;;27.93;57.76;98968.00;5071682;28;20223;-78
2023/06/15 09:48:58;;;;;;;3.00;2.28;;;;;;;28.10;58.88;98968.94;5071994;28;20199;-79
2023/06/15 09:51:28;;;;;;;3.95;2.20;;;;;;;28.24;56.05;98972.13;5071494;28;20256;-79
2023/06/15 09:53:56;;;;;;;4.00;2.47;;;;;;;28.29;59.83;98968.81;5072461;28;20645;-78
2023/06/15 09:56:23;;;;;;;3.40;2.40;;;;;;;27.95;56.84;98963.31;5072030;28;20223;-79
2023/06/15 09:58:50;;;;;;;2.60;2.22;;;;;;;28.31;59.89;98959.69;5071634;28;20235;-79
2023/06/15 10:01:19;;;;;;;3.65;2.35;;;;;;;28.33;57.88;98956.81;5072136;28;20606;-79
2023/06/15 10:03:53;;;;;;;2.97;2.30;;;;;;;28.73;56.60;98959.53;5073021;28;20240;-78
2023/06/15 10:06:22;;;;;;;2.70;2.10;;;;;;;28.66;54.98;98954.41;5073016;28;20250;-78
2023/06/15 10:08:54;;;;;;;3.55;2.63;;;;;;;29.13;55.32;98950.06;5073252;28;20202;-79
2023/06/15 10:11:21;;;;;;;2.67;2.28;;;;;;;29.34;57.97;98952.03;5072936;28;20226;-78
2023/06/15 10:13:53;;;;;;;4.85;2.75;;;;;;;29.32;57.81;98946.19;5074305;28;20629;-78
2023/06/15 10:16:21;;;;;;;2.92;2.40;;;;;;;29.22;56.88;98946.03;5072520;28;20299;-78
2023/06/15 10:18:58;;;;;;;3.55;2.50;;;;;;;29.33;54.59;98948.59;5073626;28;20279;-78
2023/06/15 10:21:29;;;;;;;3.38;2.58;;;;;;;29.58;57.96;98949.28;5073090;28;20253;-78
2023/06/15 10:23:59;;;;;;;3.00;2.30;;;;;;;29.79;54.05;98945.97;5073935;28;20588;-78
2023/06/15 10:26:26;;;;;;;3.88;2.60;;;;;;;29.83;55.52;98935.75;5072761;28;20222;-78
2023/06/15 10:28:59;;;;;;;3.03;2.50;;;;;;;29.90;57.13;98931.09;5031155;28;1189610;-78
2023/06/15 10:31:32;;;;;;;3.72;2.70;;;;;;;30.03;56.49;98937.91;5073938;28;20664;-78
2023/06/15 10:34:06;;;;;;;3.08;2.60;;;;;;;29.96;53.98;98935.41;5072944;28;20201;-78
2023/06/15 10:36:44;;;;;;;3.00;2.40;;;;;;;29.46;52.00;98929.06;5074605;28;20223;-78
2023/06/15 10:39:17;;;;;;;2.78;2.28;;;;;;;29.50;52.82;98932.84;5072487;28;20230;-78
2023/06/15 10:41:45;;;;;;;2.70;2.30;;;;;;;29.17;53.86;98930.13;5073558;28;20603;-78
2023/06/15 10:44:15;;;;;;;2.75;2.15;;;;;;;29.18;55.48;98929.09;5073624;28;20199;-78
2023/06/15 10:46:41;;;;;;;2.63;2.20;;;;;;;29.08;54.01;98925.22;5073806;28;20622;-78
2023/06/15 10:49:12;;;;;;;3.85;2.38;;;;;;;29.05;55.34;98915.19;5073464;28;20210;-78
2023/06/15 10:51:43;;;;;;;3.63;2.40;;;;;;;29.10;53.61;98925.81;5073854;28;20242;-78
2023/06/15 10:54:31;;;;;;;2.47;2.28;;;;;;;29.17;54.11;98922.22;5073050;28;20207;-78
2023/06/15 10:56:58;;;;;;;2.20;2.00;;;;;;;29.20;55.76;98921.75;5068290;28;20245;-78
2023/06/15 10:59:42;;;;;;;3.63;2.42;;;;;;;29.27;56.94;98919.78;5073065;28;20379;-78
2023/06/15 11:02:42;;;;;;;2.90;2.60;;;;;;;29.21;56.73;98923.38;5073523;28;20207;-79
2023/06/15 11:05:12;;;;;;;4.70;3.17;;;;;;;29.16;62.57;98915.38;5069214;28;20227;-78
2023/06/15 11:07:40;;;;;;;3.78;2.90;;;;;;;28.93;63.05;98909.13;5073520;28;20645;-79
2023/06/15 11:10:13;;;;;;;4.50;3.35;;;;;;;28.88;66.05;98911.66;5073877;28;20218;-78
2023/06/15 11:12:42;;;;;;;5.07;3.58;;;;;;;28.81;67.90;98903.13;5071764;28;20324;-78
2023/06/15 11:15:11;;;;;;;3.80;3.20;;;;;;;28.65;65.66;98910.72;5073307;28;20651;-78
2023/06/15 11:18:04;;;;;;;5.80;2.90;;;;;;;28.58;67.04;98910.03;5072004;28;20203;-79
2023/06/15 11:20:59;;;;;;;5.90;3.45;;;;;;;28.59;68.87;98911.63;5056803;28;20280;-79
2023/06/15 11:23:29;;;;;;;5.75;3.15;;;;;;;28.64;72.10;98911.72;5071410;28;20675;-79
2023/06/15 11:25:57;;;;;;;4.80;3.15;;;;;;;28.57;73.39;98910.28;5071651;28;20745;-79
2023/06/15 11:28:25;;;;;;;5.20;3.58;;;;;;;28.48;73.04;98904.59;5071296;28;20203;-79
2023/06/15 11:30:53;;;;;;;5.47;3.47;;;;;;;28.43;76.86;98896.59;5075168;28;20275;-79
2023/06/15 11:33:27;;;;;;;5.25;3.75;;;;;;;28.38;78.37;98904.31;5074494;28;20202;-78
2023/06/15 11:35:56;;;;;;;4.45;3.35;;;;;;;28.32;78.48;98902.63;5075396;28;20223;-79